Time;durP1;ratioP1;P1;durP2;ratioP2;P2;SDS_P1;SDS_P2;PMS_P1;PMS_P2;Temp;Humidity;BMP_temperature;BMP_pressure;BME280_temperature;BME280_humidity;BME280_pressure;Samples;Min_cycle;Max_cycle;Signal;HPM_P1;HPM_P2
2023/07/15 00:00:58;;;;;;;6.35;3.25;;;;;;;21.89;99.99;100399.38;5003504;28;20080;-66
2023/07/15 00:03:23;;;;;;;5.00;3.17;;;;;;;21.78;100.00;100399.47;4992548;28;20022;-67
2023/07/15 00:05:49;;;;;;;7.72;3.25;;;;;;;21.87;100.00;100398.66;4990526;28;20622;-67
2023/07/15 00:08:15;;;;;;;5.70;3.17;;;;;;;21.83;99.99;100394.56;4991256;28;20027;-67
2023/07/15 00:10:42;;;;;;;8.07;3.70;;;;;;;21.86;100.00;100396.09;4990975;28;20034;-67
2023/07/15 00:13:12;;;;;;;6.78;2.88;;;;;;;21.87;99.37;100398.66;4991138;28;20038;-66
2023/07/15 00:15:39;;;;;;;5.50;2.90;;;;;;;21.91;99.79;100412.66;4991301;28;20105;-67
2023/07/15 00:18:05;;;;;;;8.63;3.25;;;;;;;21.94;98.74;100417.72;4991524;28;20480;-67
2023/07/15 00:20:30;;;;;;;7.43;3.22;;;;;;;21.95;98.74;100420.25;4989988;28;20031;-67
2023/07/15 00:22:56;;;;;;;5.35;3.15;;;;;;;21.98;98.42;100413.78;4991541;28;20030;-65
2023/07/15 00:25:21;;;;;;;3.53;2.65;;;;;;;22.00;nan;100422.53;4993962;28;20046;-67
2023/07/15 00:27:47;;;;;;;3.60;2.92;;;;;;;22.05;96.42;100414.06;4991142;28;20374;-68
2023/07/15 00:30:15;;;;;;;5.55;2.65;;;;;;;22.09;95.42;100415.50;4990771;28;20081;-65
2023/07/15 00:32:41;;;;;;;5.68;3.08;;;;;;;22.12;95.12;100409.03;4990268;28;20030;-64
2023/07/15 00:35:33;;;;;;;3.38;2.55;;;;;;;22.17;94.14;100396.03;4991115;28;20068;-66
2023/07/15 00:37:59;;;;;;;3.03;2.50;;;;;;;22.20;93.47;100401.97;4990763;28;20130;-67
2023/07/15 00:40:26;;;;;;;4.13;2.55;;;;;;;22.24;93.63;100413.25;4990726;28;20073;-66
2023/07/15 00:43:30;;;;;;;2.83;2.15;;;;;;;22.22;93.81;100416.06;4990935;28;20528;-67
2023/07/15 00:46:17;;;;;;;7.07;2.55;;;;;;;22.20;92.73;100434.16;4991445;28;20085;-67
2023/07/15 00:48:52;;;;;;;8.75;2.53;;;;;;;22.18;91.86;100433.44;4991032;28;20397;-66
2023/07/15 00:51:18;;;;;;;5.90;2.53;;;;;;;22.14;92.69;100429.34;5001625;28;20037;-64
2023/07/15 00:53:43;;;;;;;6.00;2.58;;;;;;;22.04;93.06;100425.81;5008665;28;20026;-64
2023/07/15 00:56:09;;;;;;;5.05;2.63;;;;;;;22.00;93.01;100424.38;5008062;28;20113;-66
2023/07/15 00:58:35;;;;;;;6.40;2.78;;;;;;;21.94;92.81;100434.66;5009459;28;20128;-66
2023/07/15 01:01:01;;;;;;;6.50;2.67;;;;;;;21.84;93.66;100434.66;5004827;28;20057;-67
2023/07/15 01:03:26;;;;;;;4.43;2.58;;;;;;;21.83;93.96;100451.69;5008742;28;20045;-64
2023/07/15 01:05:51;;;;;;;4.35;2.75;;;;;;;21.72;94.67;100459.81;5001518;28;20034;-65
2023/07/15 01:08:17;;;;;;;10.80;2.75;;;;;;;21.71;94.73;100469.69;4990137;28;20101;-61
2023/07/15 01:10:42;;;;;;;4.57;2.42;;;;;;;21.76;95.74;100466.63;5089060;23;20144;-65
2023/07/15 01:13:09;;;;;;;7.57;2.95;;;;;;;21.75;97.00;100466.72;5028818;28;20102;-65
2023/07/15 01:15:35;;;;;;;3.88;2.20;;;;;;;21.78;97.39;100455.78;5029343;28;20041;-66
2023/07/15 01:18:00;;;;;;;7.22;2.55;;;;;;;21.75;98.16;100456.91;5029583;28;20549;-67
2023/07/15 01:20:25;;;;;;;5.38;2.70;;;;;;;21.70;99.11;100453.72;5029754;28;20108;-68
2023/07/15 01:22:51;;;;;;;3.80;2.38;;;;;;;21.58;100.00;100455.66;5028208;28;20505;-67
2023/07/15 01:25:16;;;;;;;6.00;2.90;;;;;;;21.58;100.00;100461.88;5028387;28;20350;-67
2023/07/15 01:27:42;;;;;;;4.28;2.65;;;;;;;21.48;100.00;100460.13;5028313;28;20022;-67
2023/07/15 01:30:09;;;;;;;3.97;2.60;;;;;;;21.38;100.00;100460.94;5028118;28;20099;-66
2023/07/15 01:32:34;;;;;;;7.25;2.65;;;;;;;21.28;100.00;100454.66;5028976;28;20075;-65
2023/07/15 01:35:00;;;;;;;4.60;2.35;;;;;;;21.21;100.00;100454.34;5029179;28;20041;-67
2023/07/15 01:37:25;;;;;;;5.85;2.92;;;;;;;21.09;100.00;100450.88;5029219;28;20025;-66
2023/07/15 01:39:51;;;;;;;5.35;2.38;;;;;;;21.03;100.00;100451.38;5028119;28;20060;-67
2023/07/15 01:42:17;;;;;;;11.35;3.00;;;;;;;20.98;100.00;100448.25;5028654;28;20042;-68
2023/07/15 01:44:42;;;;;;;3.97;2.28;;;;;;;20.92;100.00;100452.31;5028721;28;20102;-68
2023/07/15 01:47:08;;;;;;;3.03;2.35;;;;;;;20.86;100.00;100450.94;5027477;28;20030;-67
2023/07/15 01:49:33;;;;;;;9.10;2.72;;;;;;;20.83;100.00;100456.59;5027005;28;20104;-66
2023/07/15 01:51:59;;;;;;;6.70;2.58;;;;;;;20.73;100.00;100456.50;5028693;28;20075;-65
2023/07/15 01:54:24;;;;;;;4.20;2.22;;;;;;;20.65;100.00;100453.63;5026097;28;20021;-66
2023/07/15 01:56:50;;;;;;;5.40;2.40;;;;;;;20.60;100.00;100456.66;5027355;28;20068;-67
2023/07/15 01:59:15;;;;;;;5.78;2.70;;;;;;;20.53;100.00;100467.03;5014474;28;20435;-67
2023/07/15 02:01:41;;;;;;;11.10;2.95;;;;;;;20.47;100.00;100456.84;5008821;28;20028;-67
2023/07/15 02:04:06;;;;;;;6.88;2.83;;;;;;;20.48;100.00;100458.53;5009043;28;20117;-67
2023/07/15 02:06:32;;;;;;;9.30;2.70;;;;;;;20.49;100.00;100460.22;5023878;28;20030;-65
2023/07/15 02:08:57;;;;;;;8.15;3.40;;;;;;;20.57;100.00;100464.94;5018716;28;20083;-68
2023/07/15 02:11:22;;;;;;;6.13;2.63;;;;;;;20.63;100.00;100459.09;5028715;28;20094;-66
2023/07/15 02:13:50;;;;;;;7.00;2.85;;;;;;;20.66;100.00;100455.31;5026226;28;20376;-64
2023/07/15 02:16:15;;;;;;;5.38;2.35;;;;;;;20.70;100.00;100459.41;5028010;28;20490;-66
2023/07/15 02:18:41;;;;;;;13.48;3.03;;;;;;;20.74;100.00;100458.19;5028187;28;20116;-66
2023/07/15 02:21:06;;;;;;;7.47;2.88;;;;;;;20.73;100.00;100456.50;5028726;28;20100;-69
2023/07/15 02:23:32;;;;;;;5.15;2.50;;;;;;;20.78;100.00;100448.06;5027781;28;20357;-68
2023/07/15 02:25:58;;;;;;;5.20;2.65;;;;;;;20.77;100.00;100447.22;5028437;28;20026;-69
2023/07/15 02:28:26;;;;;;;6.47;2.47;;;;;;;20.88;100.00;100454.34;5029111;28;20022;-68
2023/07/15 02:30:52;;;;;;;4.55;2.40;;;;;;;20.95;100.00;100444.84;5028516;28;20052;-67
2023/07/15 02:33:17;;;;;;;8.32;2.63;;;;;;;20.99;100.00;100448.13;5027459;28;20434;-66
2023/07/15 02:35:43;;;;;;;6.57;2.20;;;;;;;21.05;100.00;100447.63;5028066;28;20061;-67
2023/07/15 02:38:09;;;;;;;6.10;2.17;;;;;;;21.06;100.00;100445.78;5027478;28;20104;-65
2023/07/15 02:40:34;;;;;;;4.90;1.80;;;;;;;21.16;100.00;100445.84;5026338;28;20087;-68
2023/07/15 02:43:00;;;;;;;2.85;1.95;;;;;;;21.25;100.00;100449.56;5028338;28;20045;-67
2023/07/15 02:45:26;;;;;;;5.20;1.90;;;;;;;21.28;100.00;100446.63;5028876;28;20027;-67
2023/07/15 02:47:51;;;;;;;2.35;1.70;;;;;;;21.31;100.00;100441.84;5028299;28;20029;-67
2023/07/15 02:50:18;;;;;;;5.75;1.90;;;;;;;21.40;100.00;100442.88;5028058;28;20028;-68
2023/07/15 02:52:45;;;;;;;4.45;1.70;;;;;;;21.49;100.00;100445.75;5027821;28;20052;-68
2023/07/15 02:55:10;;;;;;;4.50;1.60;;;;;;;21.43;100.00;100452.50;5027237;28;20025;-63
2023/07/15 02:57:36;;;;;;;3.42;1.70;;;;;;;21.43;100.00;100447.97;5026930;28;20471;-67
2023/07/15 03:00:07;;;;;;;4.95;2.15;;;;;;;21.44;100.00;100449.69;5028095;28;20029;-67
2023/07/15 03:02:33;;;;;;;3.72;1.80;;;;;;;21.35;100.00;100453.16;5026297;28;20045;-66
2023/07/15 03:04:58;;;;;;;4.75;1.80;;;;;;;21.35;100.00;100450.47;5027400;28;20658;-61
2023/07/15 03:07:23;;;;;;;4.00;1.88;;;;;;;21.32;100.00;100446.25;5028661;28;20029;-68
2023/07/15 03:09:49;;;;;;;5.00;1.77;;;;;;;21.26;100.00;100452.13;5027157;28;20045;-68
2023/07/15 03:12:14;;;;;;;4.93;2.03;;;;;;;21.19;100.00;100454.47;5028469;28;20117;-66
2023/07/15 03:14:41;;;;;;;8.32;2.00;;;;;;;21.11;100.00;100450.75;5028037;28;20098;-68
2023/07/15 03:17:08;;;;;;;3.85;2.10;;;;;;;21.01;100.00;100448.00;5028454;28;20143;-68
2023/07/15 03:19:33;;;;;;;4.43;2.10;;;;;;;20.99;100.00;100448.13;5026991;28;20068;-68
2023/07/15 03:21:59;;;;;;;2.15;1.65;;;;;;;20.96;100.00;100453.75;5028697;28;20483;-65
2023/07/15 03:24:25;;;;;;;6.18;2.20;;;;;;;20.93;100.00;100445.97;5027894;28;20057;-63
2023/07/15 03:26:54;;;;;;;4.82;2.40;;;;;;;20.89;100.00;100450.69;5031601;28;20403;-68
2023/07/15 03:29:20;;;;;;;5.20;2.35;;;;;;;20.93;100.00;100441.47;5030891;28;20029;-68
2023/07/15 03:31:46;;;;;;;6.47;2.83;;;;;;;20.84;100.00;100447.56;5030522;28;20113;-68
2023/07/15 03:34:11;;;;;;;4.65;2.38;;;;;;;20.90;100.00;100449.75;5031991;28;20104;-68
2023/07/15 03:36:36;;;;;;;2.83;2.05;;;;;;;20.90;100.00;100447.09;5031342;28;20040;-66
2023/07/15 03:39:02;;;;;;;5.15;2.35;;;;;;;20.93;100.00;100449.50;5030962;28;20368;-67
2023/07/15 03:41:27;;;;;;;6.35;2.40;;;;;;;20.98;100.00;100448.25;5031815;28;20033;-62
2023/07/15 03:43:53;;;;;;;5.80;2.10;;;;;;;21.00;100.00;100440.94;5031243;28;20109;-67
2023/07/15 03:46:18;;;;;;;5.45;2.28;;;;;;;21.02;100.00;100449.69;5031975;28;20061;-67
2023/07/15 03:48:43;;;;;;;6.18;2.15;;;;;;;21.00;100.00;100451.63;5029702;28;20017;-62
2023/07/15 03:51:09;;;;;;;7.20;2.38;;;;;;;21.04;100.00;100445.91;5031474;28;20036;-66
2023/07/15 03:53:34;;;;;;;4.38;1.95;;;;;;;21.09;100.00;100450.88;5029185;28;20069;-65
2023/07/15 03:56:00;;;;;;;6.10;2.50;;;;;;;21.14;100.00;100451.34;5030849;28;20064;-65
2023/07/15 03:58:25;;;;;;;4.07;2.22;;;;;;;21.16;100.00;100449.38;5040861;28;20021;-66
2023/07/15 04:00:50;;;;;;;3.92;2.45;;;;;;;21.23;100.00;100454.19;5050641;28;20033;-66
2023/07/15 04:03:16;;;;;;;3.10;2.50;;;;;;;21.24;100.00;100461.25;5050860;28;20047;-66
2023/07/15 04:05:42;;;;;;;4.15;2.10;;;;;;;21.26;100.00;100468.19;5050407;28;20545;-60
2023/07/15 04:08:07;;;;;;;5.05;2.42;;;;;;;21.30;100.00;100464.25;5044064;28;20013;-64
2023/07/15 04:10:32;;;;;;;6.82;2.53;;;;;;;21.35;100.00;100466.56;5030495;28;20048;-65
2023/07/15 04:12:58;;;;;;;4.30;2.30;;;;;;;21.37;100.00;100459.22;5030669;28;20100;-66
2023/07/15 04:15:23;;;;;;;6.15;2.35;;;;;;;21.38;100.00;100460.94;5025957;28;20492;-67
2023/07/15 04:17:48;;;;;;;5.65;2.55;;;;;;;21.38;100.00;100457.41;5011117;28;20404;-65
2023/07/15 04:20:17;;;;;;;5.40;2.30;;;;;;;21.45;100.00;100466.59;5010968;28;20022;-65
2023/07/15 04:22:42;;;;;;;5.45;2.33;;;;;;;21.50;100.00;100468.88;5011324;28;20033;-66
2023/07/15 04:25:10;;;;;;;7.38;2.60;;;;;;;21.50;100.00;100469.75;5010644;28;20397;-65
2023/07/15 04:27:38;;;;;;;5.60;2.47;;;;;;;21.49;100.00;100480.59;5012414;28;20331;-66
2023/07/15 04:30:04;;;;;;;3.38;2.10;;;;;;;21.46;100.00;100474.50;5030511;28;20092;-64
2023/07/15 04:32:29;;;;;;;3.00;2.38;;;;;;;21.53;100.00;100484.69;5039033;28;20467;-65
2023/07/15 04:34:55;;;;;;;4.75;2.33;;;;;;;21.54;100.00;100494.44;5034893;28;20017;-64
2023/07/15 04:37:20;;;;;;;4.93;2.22;;;;;;;21.58;100.00;100488.69;5030068;28;20078;-64
2023/07/15 04:39:45;;;;;;;4.45;2.40;;;;;;;21.62;100.00;100491.94;5029367;28;20120;-65
2023/07/15 04:42:11;;;;;;;8.88;2.40;;;;;;;21.64;100.00;100495.34;5030213;28;20140;-65
2023/07/15 04:44:36;;;;;;;6.47;2.10;;;;;;;21.71;100.00;100493.81;5029399;28;20380;-66
2023/07/15 04:47:02;;;;;;;2.80;2.22;;;;;;;21.69;100.00;100495.78;5030066;28;20044;-64
2023/07/15 04:49:27;;;;;;;5.85;2.25;;;;;;;21.64;100.00;100491.81;5030358;28;20029;-65
2023/07/15 04:51:52;;;;;;;3.92;1.65;;;;;;;21.76;100.00;100492.63;5029119;28;20123;-65
2023/07/15 04:54:18;;;;;;;3.83;1.80;;;;;;;21.63;100.00;100499.00;5029068;28;20022;-65
2023/07/15 04:56:43;;;;;;;3.45;1.58;;;;;;;21.77;100.00;100497.00;5029343;28;20029;-67
2023/07/15 04:59:08;;;;;;;2.08;1.38;;;;;;;21.78;100.00;100496.00;5028027;28;20041;-68
2023/07/15 05:01:34;;;;;;;5.72;1.52;;;;;;;21.76;100.00;100495.31;5021675;28;20417;-66
2023/07/15 05:04:01;;;;;;;3.15;1.40;;;;;;;21.72;100.00;100500.03;5018428;28;20109;-65
2023/07/15 05:06:27;;;;;;;2.40;1.30;;;;;;;21.78;100.00;100494.19;5029193;28;20110;-66
2023/07/15 05:08:53;;;;;;;4.88;1.40;;;;;;;21.77;100.00;100497.00;5028889;28;20482;-67
2023/07/15 05:11:19;;;;;;;10.07;1.65;;;;;;;21.76;100.00;100490.75;5030368;28;20030;-66
2023/07/15 05:13:44;;;;;;;7.28;1.45;;;;;;;21.74;100.00;100498.09;5029366;28;20053;-66
2023/07/15 05:16:10;;;;;;;3.55;1.40;;;;;;;21.75;100.00;100501.59;5029583;28;20053;-67
2023/07/15 05:18:35;;;;;;;3.42;1.40;;;;;;;21.74;100.00;100497.22;5028374;28;20221;-66
2023/07/15 05:21:01;;;;;;;3.70;1.65;;;;;;;21.74;100.00;100506.13;5028825;28;20064;-65
2023/07/15 05:23:31;;;;;;;6.18;1.33;;;;;;;21.74;100.00;100502.59;5028077;28;20117;-67
2023/07/15 05:25:57;;;;;;;3.38;1.45;;;;;;;21.71;100.00;100498.34;5029114;28;20029;-66
2023/07/15 05:28:26;;;;;;;5.93;1.60;;;;;;;21.77;100.00;100507.72;5023322;28;20036;-66
2023/07/15 05:30:51;;;;;;;3.08;1.52;;;;;;;21.75;100.00;100504.28;5017835;28;20061;-67
2023/07/15 05:33:17;;;;;;;5.50;1.52;;;;;;;21.84;100.00;100498.16;5015793;28;20056;-62
2023/07/15 05:35:42;;;;;;;3.40;1.42;;;;;;;21.69;100.00;100506.53;5027084;28;20452;-65
2023/07/15 05:38:08;;;;;;;2.97;1.30;;;;;;;21.70;100.00;100510.03;5027541;28;20057;-65
2023/07/15 05:40:33;;;;;;;4.88;1.20;;;;;;;21.74;100.00;100500.75;5026478;28;20029;-67
2023/07/15 05:42:59;;;;;;;5.95;1.52;;;;;;;21.87;100.00;100508.59;5027893;28;20368;-66
2023/07/15 05:45:25;;;;;;;4.15;1.58;;;;;;;21.76;100.00;100508.69;5029234;28;20032;-65
2023/07/15 05:47:50;;;;;;;2.72;1.23;;;;;;;21.82;100.00;100505.47;5017911;28;20380;-66
2023/07/15 05:50:16;;;;;;;4.60;1.20;;;;;;;21.89;100.00;100503.97;5018271;28;20029;-65
2023/07/15 05:52:41;;;;;;;2.45;1.20;;;;;;;21.88;100.00;100504.94;5018662;28;20092;-66
2023/07/15 05:55:07;;;;;;;3.65;1.40;;;;;;;22.00;100.00;100512.91;5016786;28;20024;-66
2023/07/15 05:57:33;;;;;;;5.18;1.50;;;;;;;22.05;100.00;100505.28;5018490;28;20025;-64
2023/07/15 05:59:58;;;;;;;4.85;1.40;;;;;;;22.08;100.00;100510.38;5018233;28;20017;-62
2023/07/15 06:02:25;;;;;;;4.75;1.23;;;;;;;22.13;100.00;100513.50;5018022;28;20530;-66
2023/07/15 06:04:51;;;;;;;3.08;1.30;;;;;;;22.20;100.00;100514.66;5018864;28;20032;-66
2023/07/15 06:07:16;;;;;;;5.93;1.67;;;;;;;22.11;100.00;100520.84;5028327;28;20018;-67
2023/07/15 06:09:41;;;;;;;4.07;1.48;;;;;;;22.25;100.00;100521.44;5026892;28;20128;-67
2023/07/15 06:12:07;;;;;;;5.68;1.60;;;;;;;22.29;100.00;100517.50;5018357;28;20056;-66
2023/07/15 06:14:32;;;;;;;5.03;1.70;;;;;;;22.31;100.00;100513.69;5017064;28;20025;-66
2023/07/15 06:16:58;;;;;;;5.72;1.50;;;;;;;22.42;100.00;100526.16;5017623;28;20018;-65
2023/07/15 06:19:24;;;;;;;4.80;1.67;;;;;;;22.44;100.00;100509.91;5019177;28;20453;-63
2023/07/15 06:21:50;;;;;;;4.53;1.60;;;;;;;22.62;100.00;100507.44;5016610;28;20571;-66
2023/07/15 06:24:15;;;;;;;5.38;1.48;;;;;;;22.74;100.00;100501.91;5014654;28;20056;-66
2023/07/15 06:26:40;;;;;;;3.20;1.30;;;;;;;22.75;100.00;100517.06;5023606;28;20087;-65
2023/07/15 06:29:06;;;;;;;5.82;1.33;;;;;;;22.81;100.00;100505.75;5022342;28;20045;-65
2023/07/15 06:31:31;;;;;;;3.20;1.55;;;;;;;22.72;100.00;100508.28;5016236;28;20088;-68
2023/07/15 06:33:56;;;;;;;4.10;1.67;;;;;;;22.81;100.00;100511.09;5019171;28;20037;-66
2023/07/15 06:36:22;;;;;;;5.43;1.50;;;;;;;23.01;100.00;100522.72;5031809;28;20069;-64
2023/07/15 06:38:47;;;;;;;2.78;1.42;;;;;;;23.21;100.00;100518.16;5020912;28;20038;-66
2023/07/15 06:41:12;;;;;;;6.82;1.33;;;;;;;23.07;100.00;100522.16;5016713;28;20021;-67
2023/07/15 06:43:38;;;;;;;2.53;1.58;;;;;;;23.29;100.00;100505.84;5017281;28;20036;-67
2023/07/15 06:46:03;;;;;;;3.25;1.30;;;;;;;23.25;100.00;100517.88;5023731;28;20044;-63
2023/07/15 06:48:29;;;;;;;2.72;1.30;;;;;;;23.33;100.00;100526.09;5020157;28;20024;-63
2023/07/15 06:50:54;;;;;;;4.05;1.40;;;;;;;23.46;100.00;100520.44;5017386;28;20121;-67
2023/07/15 06:53:19;;;;;;;6.05;1.48;;;;;;;23.52;100.00;100530.63;5018812;28;20037;-67
2023/07/15 06:55:45;;;;;;;3.28;1.25;;;;;;;23.73;100.00;100525.03;5024993;28;20037;-65
2023/07/15 06:58:10;;;;;;;2.97;1.35;;;;;;;23.88;96.93;100529.09;5017095;28;20028;-67
2023/07/15 07:00:36;;;;;;;1.77;1.35;;;;;;;23.97;94.97;100533.59;5018426;28;20487;-66
2023/07/15 07:03:01;;;;;;;5.13;1.40;;;;;;;23.87;95.64;100528.22;5022639;28;20114;-67
2023/07/15 07:05:26;;;;;;;1.83;1.05;;;;;;;24.00;94.25;100527.06;5021452;28;20018;-65
2023/07/15 07:07:52;;;;;;;2.45;0.93;;;;;;;24.07;93.43;100537.09;5020958;28;20816;-67
2023/07/15 07:10:18;;;;;;;3.42;1.40;;;;;;;24.28;93.63;100522.56;5022035;28;20053;-66
2023/07/15 07:12:43;;;;;;;5.65;1.25;;;;;;;24.28;93.83;100527.94;5019140;28;20041;-64
2023/07/15 07:15:09;;;;;;;3.42;1.23;;;;;;;24.25;94.35;100528.25;5030936;28;20022;-64
2023/07/15 07:17:34;;;;;;;1.33;1.00;;;;;;;24.30;93.92;100530.50;5019584;28;20026;-68
2023/07/15 07:20:00;;;;;;;1.90;0.85;;;;;;;24.48;92.98;100525.16;5021191;28;20033;-65
2023/07/15 07:22:25;;;;;;;1.40;1.10;;;;;;;24.59;91.67;100521.41;5020412;28;20096;-63
2023/07/15 07:24:52;;;;;;;1.60;1.00;;;;;;;24.08;92.15;100529.88;5021224;28;20018;-65
2023/07/15 07:27:18;;;;;;;3.42;1.13;;;;;;;24.43;91.81;100530.13;5027459;28;20502;-64
2023/07/15 07:29:43;;;;;;;2.58;1.40;;;;;;;24.51;88.11;100541.00;5027611;28;20076;-64
2023/07/15 07:32:09;;;;;;;2.40;1.10;;;;;;;24.21;88.96;100543.00;5014682;28;20384;-68
2023/07/15 07:34:34;;;;;;;3.53;1.10;;;;;;;24.41;87.12;100549.13;5014841;28;20034;-62
2023/07/15 07:36:59;;;;;;;2.67;1.30;;;;;;;24.58;85.33;100538.53;5015004;28;20037;-66
2023/07/15 07:39:25;;;;;;;3.20;1.30;;;;;;;24.55;86.22;100547.78;5026886;28;20129;-69
2023/07/15 07:41:50;;;;;;;2.30;1.27;;;;;;;24.52;85.21;100539.13;5030836;28;20062;-66
2023/07/15 07:44:16;;;;;;;2.55;1.48;;;;;;;24.52;85.94;100539.13;5018992;28;20025;-63
2023/07/15 07:46:41;;;;;;;1.80;1.38;;;;;;;24.38;86.56;100544.03;5020725;28;20029;-62
2023/07/15 07:49:06;;;;;;;1.95;1.48;;;;;;;24.44;84.32;100550.69;5027757;28;20026;-64
2023/07/15 07:51:32;;;;;;;1.95;1.27;;;;;;;24.54;84.02;100539.84;5018577;28;20032;-64
2023/07/15 07:53:57;;;;;;;2.15;1.60;;;;;;;24.66;83.71;100544.03;5025228;28;20028;-62
2023/07/15 07:56:23;;;;;;;2.70;1.30;;;;;;;24.66;83.60;100538.63;5017334;28;20044;-64
2023/07/15 07:58:54;;;;;;;2.17;1.25;;;;;;;24.78;83.21;100535.72;5024942;28;20083;-63
2023/07/15 08:01:21;;;;;;;3.45;1.38;;;;;;;24.87;83.09;100545.59;5024933;28;20520;-60
2023/07/15 08:03:46;;;;;;;2.22;1.30;;;;;;;24.95;84.02;100556.44;5022199;28;20034;-64
2023/07/15 08:06:11;;;;;;;2.38;1.20;;;;;;;25.11;83.40;100554.91;5027494;28;20049;-65
2023/07/15 08:08:37;;;;;;;3.10;1.30;;;;;;;25.28;81.05;100558.59;5028122;28;20022;-62
2023/07/15 08:11:02;;;;;;;2.92;1.20;;;;;;;25.30;80.69;100545.81;5021965;28;20133;-64
2023/07/15 08:13:27;;;;;;;1.23;1.10;;;;;;;25.30;81.08;100553.03;5020573;28;20048;-63
2023/07/15 08:15:53;;;;;;;4.50;1.25;;;;;;;25.30;81.39;100539.56;5017511;28;20022;-65
2023/07/15 08:18:18;;;;;;;4.75;1.38;;;;;;;25.11;81.60;100566.53;5028686;28;20124;-62
2023/07/15 08:20:44;;;;;;;1.95;1.20;;;;;;;24.88;84.79;100563.47;5028982;28;20032;-64
2023/07/15 08:23:09;;;;;;;1.95;1.30;;;;;;;24.80;86.48;100560.66;5029797;28;20064;-65
2023/07/15 08:25:37;;;;;;;1.88;1.23;;;;;;;24.76;84.98;100567.34;5028060;28;20025;-66
2023/07/15 08:28:02;;;;;;;3.97;1.35;;;;;;;24.96;82.97;100560.81;5029952;28;20033;-65
2023/07/15 08:30:27;;;;;;;1.80;1.20;;;;;;;24.78;83.57;100557.25;5026964;28;20471;-63
2023/07/15 08:32:53;;;;;;;2.00;1.40;;;;;;;25.01;80.71;100565.75;5029813;28;20083;-67
2023/07/15 08:35:18;;;;;;;2.45;1.48;;;;;;;25.05;78.85;100574.41;5030380;28;20029;-64
2023/07/15 08:37:44;;;;;;;3.03;1.40;;;;;;;25.08;78.93;100579.47;5029290;28;20029;-61
2023/07/15 08:40:11;;;;;;;1.35;1.23;;;;;;;24.91;80.62;100565.84;5030328;28;20032;-67
2023/07/15 08:42:36;;;;;;;4.72;1.75;;;;;;;25.08;79.97;100579.47;5028128;28;20041;-62
2023/07/15 08:45:02;;;;;;;6.18;1.45;;;;;;;25.28;79.02;100568.53;5029432;28;20356;-65
2023/07/15 08:47:28;;;;;;;3.40;1.42;;;;;;;25.42;77.11;100576.06;5028812;28;20104;-64
2023/07/15 08:49:54;;;;;;;1.98;1.15;;;;;;;25.21;78.68;100579.94;5029862;28;20164;-65
2023/07/15 08:52:22;;;;;;;3.22;1.38;;;;;;;25.33;77.12;100580.53;5028185;28;20707;-66
2023/07/15 08:54:50;;;;;;;1.20;1.10;;;;;;;25.65;77.74;100574.75;5027825;28;20025;-68
2023/07/15 08:57:20;;;;;;;2.78;1.38;;;;;;;25.79;76.32;100584.13;5029059;28;20365;-68
2023/07/15 08:59:49;;;;;;;2.58;1.30;;;;;;;25.74;75.98;100573.78;5027199;28;20087;-66
2023/07/15 09:02:15;;;;;;;4.13;1.52;;;;;;;25.87;76.50;100584.16;5029591;28;20017;-65
2023/07/15 09:04:40;;;;;;;3.50;1.42;;;;;;;25.63;76.84;100598.31;5028911;28;20384;-65
2023/07/15 09:07:06;;;;;;;4.03;1.50;;;;;;;25.66;76.40;100593.47;5029197;28;20075;-66
2023/07/15 09:09:33;;;;;;;2.15;1.33;;;;;;;25.89;75.00;100594.78;5025750;28;20428;-65
2023/07/15 09:12:04;;;;;;;3.92;1.27;;;;;;;25.99;74.90;100598.22;5029124;28;20044;-63
2023/07/15 09:14:29;;;;;;;1.48;1.13;;;;;;;26.09;73.86;100593.56;5026099;28;20108;-65
2023/07/15 09:16:58;;;;;;;3.20;1.40;;;;;;;26.17;75.25;100595.44;5029033;28;20033;-65
2023/07/15 09:19:25;;;;;;;2.42;1.20;;;;;;;26.01;77.48;100607.00;5028189;28;20037;-65
2023/07/15 09:22:03;;;;;;;2.45;1.25;;;;;;;26.29;75.43;100592.44;5028204;28;20026;-65
2023/07/15 09:24:30;;;;;;;2.27;1.30;;;;;;;26.23;75.29;100588.56;5027951;28;20468;-63
2023/07/15 09:26:56;;;;;;;1.30;1.20;;;;;;;26.21;74.30;100598.66;5029134;28;20025;-67
2023/07/15 09:29:22;;;;;;;4.88;1.20;;;;;;;26.15;73.22;100589.34;5027833;28;20416;-67
2023/07/15 09:31:47;;;;;;;3.47;1.00;;;;;;;26.12;74.10;100592.38;5027341;28;20029;-62
2023/07/15 09:34:13;;;;;;;2.75;1.20;;;;;;;26.08;74.16;100593.72;5028066;28;20468;-67
2023/07/15 09:36:38;;;;;;;4.95;1.23;;;;;;;25.77;75.97;100607.69;5026399;28;20029;-67
2023/07/15 09:39:15;;;;;;;2.72;1.35;;;;;;;26.03;75.53;100606.84;5027981;28;20060;-65
2023/07/15 09:41:43;;;;;;;2.22;1.02;;;;;;;26.10;74.66;100602.50;5027414;28;20017;-67
2023/07/15 09:44:09;;;;;;;3.17;1.30;;;;;;;26.05;75.45;100612.91;5028367;28;20033;-65
2023/07/15 09:46:34;;;;;;;2.92;1.40;;;;;;;26.09;76.05;100601.66;5027880;28;20045;-65
2023/07/15 09:49:00;;;;;;;3.17;1.40;;;;;;;26.31;75.69;100593.19;5028087;28;20029;-65
2023/07/15 09:51:26;;;;;;;4.20;1.20;;;;;;;26.06;77.96;100604.66;5027673;28;20391;-66
2023/07/15 09:53:55;;;;;;;3.88;1.30;;;;;;;26.52;74.57;100597.31;5027696;28;20116;-64
2023/07/15 09:56:31;;;;;;;1.88;1.02;;;;;;;26.79;73.72;100603.47;5028407;28;20468;-67
2023/07/15 09:59:02;;;;;;;2.47;1.50;;;;;;;26.87;73.14;100604.34;5026072;28;20076;-66
2023/07/15 10:01:47;;;;;;;3.63;1.42;;;;;;;27.21;71.83;100607.13;5026210;28;20029;-66
2023/07/15 10:04:12;;;;;;;2.17;1.30;;;;;;;27.45;71.34;100602.72;5008459;28;20022;-69
2023/07/15 10:06:38;;;;;;;4.95;1.73;;;;;;;27.22;72.64;100603.38;5007208;28;20022;-67
2023/07/15 10:09:04;;;;;;;4.68;1.23;;;;;;;27.35;74.42;100603.75;5024896;28;20077;-68
2023/07/15 10:11:30;;;;;;;1.80;1.27;;;;;;;27.66;74.72;100593.28;5024745;28;20033;-66
2023/07/15 10:13:56;;;;;;;5.20;1.63;;;;;;;27.76;71.67;100599.34;5021588;28;20379;-66
2023/07/15 10:16:22;;;;;;;4.05;1.40;;;;;;;27.08;75.77;100596.78;5026676;28;20025;-67
2023/07/15 10:18:47;;;;;;;4.50;1.55;;;;;;;27.45;72.97;100603.56;5009954;28;20504;-64
2023/07/15 10:21:14;;;;;;;3.40;1.77;;;;;;;26.65;76.28;100608.50;5028273;28;20399;-65
2023/07/15 10:23:39;;;;;;;4.53;1.65;;;;;;;26.78;76.06;100601.78;5026556;28;20023;-65
2023/07/15 10:26:06;;;;;;;3.42;1.48;;;;;;;26.59;80.13;100598.34;5027106;28;20025;-66
2023/07/15 10:28:41;;;;;;;2.72;1.40;;;;;;;26.71;77.63;100599.75;5026054;28;20029;-67
2023/07/15 10:31:15;;;;;;;1.92;1.38;;;;;;;27.08;75.28;100592.22;5026589;28;20029;-65
2023/07/15 10:33:55;;;;;;;2.60;1.30;;;;;;;27.07;73.76;100604.06;5026847;28;20045;-65
2023/07/15 10:36:41;;;;;;;2.97;1.55;;;;;;;26.43;78.25;100594.56;5030819;28;20059;-66
2023/07/15 10:39:13;;;;;;;2.58;1.40;;;;;;;26.56;75.51;100593.25;5031542;28;20025;-66
2023/07/15 10:41:44;;;;;;;3.53;1.50;;;;;;;26.45;78.26;100586.28;5028313;28;20041;-64
2023/07/15 10:44:23;;;;;;;12.52;1.40;;;;;;;26.63;75.36;100580.78;5020539;28;20491;-68
2023/07/15 10:47:02;;;;;;;2.72;1.40;;;;;;;26.60;75.43;100578.41;5020143;28;20391;-68
2023/07/15 10:49:30;;;;;;;2.20;1.50;;;;;;;26.46;77.19;100582.59;5032285;28;20026;-67
2023/07/15 10:51:55;;;;;;;5.28;1.45;;;;;;;26.99;75.47;100577.00;5032549;28;20044;-68
2023/07/15 10:54:28;;;;;;;3.53;1.20;;;;;;;27.36;76.07;100562.13;5029708;28;20460;-67
2023/07/15 10:56:54;;;;;;;4.75;1.52;;;;;;;27.12;75.71;100565.72;5026446;28;20396;-65
2023/07/15 10:59:34;;;;;;;5.22;1.40;;;;;;;27.19;78.38;100564.03;5031260;28;20028;-67
2023/07/15 11:01:59;;;;;;;4.40;1.35;;;;;;;27.06;77.63;100545.56;5031167;28;20060;-67
2023/07/15 11:04:25;;;;;;;2.38;1.33;;;;;;;27.30;74.69;100543.06;5029812;28;20056;-64
2023/07/15 11:06:50;;;;;;;3.65;1.60;;;;;;;27.29;73.21;100539.50;5031211;28;20021;-68
2023/07/15 11:09:17;;;;;;;2.05;1.17;;;;;;;27.28;73.76;100536.97;5030255;28;20044;-68
2023/07/15 11:11:43;;;;;;;5.80;1.42;;;;;;;27.42;73.46;100538.16;5029453;28;21478;-66
2023/07/15 11:14:27;;;;;;;4.03;1.40;;;;;;;27.53;71.82;100539.63;5031146;28;20078;-66
2023/07/15 11:16:58;;;;;;;5.47;1.65;;;;;;;27.83;69.84;100534.53;5031099;28;20108;-66
2023/07/15 11:19:28;;;;;;;4.68;1.27;;;;;;;27.80;72.53;100524.88;5030623;28;20041;-67